• Join FlightAware (Why Join?)
  • Login
  • US Flag 
03:32AM EST


 

Airport Tracker/Info


-or-


 

Live Flight TrackerFlight Track Log ✈ N35079 ✈ 18-Oct-2013 ✈ KCOI - KCRG

Flight Track Log - Related Links

Times and Time Zones

All times are in EDT time to prevent confusion due to time zone crossing. See the N35079 flight status page for this flight to view local times or setup timezone preferences in your user account.

Time Position Orientation Groundspeed Altitude Reporting Facility
EDT Latitude Longitude Course Direction KTS MPH feet Rate Location/Type
05:09PM 28.8250 -80.8925 347° North 114 131 7,500  Level Jacksonville Center
05:10PM 28.8586 -80.9011 347° North 113 130 7,500  Level Jacksonville Center
05:11PM 28.8858 -80.9125 340° North 110 127 7,500  Level Jacksonville Center
05:12PM 28.9175 -80.9261 339° North 110 127 7,500  Level Jacksonville Center
05:13PM 28.9489 -80.9422 336° Northwest 109 125 7,500  Level Jacksonville Center
05:14PM 28.9783 -80.9533 342° North 112 129 7,500  Level Jacksonville Center
05:15PM 29.0100 -80.9694 336° Northwest 113 130 7,500  Level Jacksonville Center
05:16PM 29.0394 -80.9808 341° North 115 132 7,500  Level Jacksonville Center
05:17PM 29.0689 -80.9969 334° Northwest 116 133 7,500  Level Jacksonville Center
05:18PM 29.0981 -81.0081 342° North 116 133 7,500  Level Jacksonville Center
05:19PM 29.1297 -81.0194 343° North 116 133 7,500  Level Jacksonville Center
05:20PM 29.1569 -81.0283 344° North 118 136 7,500  Level Jacksonville Center
05:21PM 29.1864 -81.0422 338° Northwest 115 132 7,500  Level Jacksonville Center
05:22PM 29.2200 -81.0533 344° North 115 132 7,500  Level Jacksonville Center
05:23PM 29.2492 -81.0647 341° North 117 135 7,500  Level Jacksonville Center
05:24PM 29.2786 -81.0761 341° North 112 129 7,500  Level Jacksonville Center
05:25PM 29.3081 -81.0897 338° Northwest 114 131 7,500  Level Jacksonville Center
05:26PM 29.3417 -81.1058 337° Northwest 113 130 7,500  Level Jacksonville Center
05:27PM 29.3711 -81.1172 341° North 114 131 7,500  Level Jacksonville Center
05:28PM 29.4025 -81.1286 342° North 114 131 7,500  Level Jacksonville Center
05:29PM 29.4278 -81.1400 339° North 111 128 7,500  Level Jacksonville Center
05:30PM 29.4614 -81.1561 337° Northwest 108 124 7,500  Level Jacksonville Center
05:31PM 29.4908 -81.1675 341° North 109 125 7,500  Level Jacksonville Center
05:32PM 29.5158 -81.1767 342° North 112 129 7,500  Level Jacksonville Center
05:33PM 29.5475 -81.1881 343° North 113 130 7,500  Level Jacksonville Center
05:34PM 29.5831 -81.2017 342° North 111 128 7,500  Level Jacksonville Center
05:35PM 29.6103 -81.2156 336° Northwest 112 129 7,500  Level Jacksonville Center
05:36PM 29.6292 -81.2225 342° North 110 127 7,500  Level Jacksonville Center
05:37PM 29.6628 -81.2339 344° North 110 127 7,500  Level Jacksonville Center
05:38PM 29.6944 -81.2478 339° North 112 129 7,500  Level Jacksonville Center
05:39PM 29.7089 -81.2547 337° Northwest 112 129 7,500  Level Jacksonville Center
05:39PM 29.7194 -81.2592 340° North 113 130 7,500  Level Jacksonville Center
05:40PM 29.7531 -81.2753 337° Northwest 114 131 7,500  Level Jacksonville Center
05:41PM 29.7806 -81.2892 336° Northwest 111 128 7,500  Level Jacksonville Center
05:42PM 29.8097 -81.3008 341° North 109 125 7,500  Level Jacksonville Center
05:43PM 29.8392 -81.3122 341° North 114 131 7,500  Level Jacksonville Center
05:44PM 29.8706 -81.3261 339° North 112 129 7,500 -60 Level Jacksonville Center
05:45PM 29.9022 -81.3353 346° North 113 130 7,400 -300 Descending Jacksonville Center
05:46PM 29.9336 -81.3514 336° Northwest 119 137 6,900 -540 Descending Jacksonville Center
05:47PM 29.9650 -81.3533 357° North 117 135 6,300 -600 Descending Jacksonville Center
05:48PM 29.9986 -81.3697 337° Northwest 121 139 5,700 -540 Descending Jacksonville Center
05:49PM 30.0322 -81.3858 337° Northwest 130 150 5,300 -480 Descending Jacksonville Center
05:50PM 30.0658 -81.4022 337° Northwest 131 151 4,800 -600 Descending Jacksonville Center
05:51PM 30.0992 -81.4161 340° North 125 144 4,200 -660 Descending Jacksonville Center
05:52PM 30.1350 -81.4394 331° Northwest 126 145 3,400 -840 Descending Jacksonville Center
05:53PM 30.1644 -81.4558 334° Northwest 128 147 2,600 -840 Descending Jacksonville Center
05:54PM 30.1919 -81.4794 323° Northwest 128 147 1,800 -600 Descending Jacksonville Center
05:55PM 30.2253 -81.4911 343° North 123 142 1,500 -360 Descending Jacksonville Center
05:56PM 30.2567 -81.4953 353° North 126 145 1,100 -300 Descending Jacksonville Center
05:57PM 30.2922 -81.5019 351° North 127 146 900 -120 Descending Jacksonville Center
05:58PM 30.3239 -81.5233 330° Northwest 117 135 900 -120 Level Jacksonville Center
06:00PM 30.3492 -81.5422 327° Northwest 104 120 700 -120 Descending Jacksonville Center
06:01PM 30.3383 -81.5133 113° Southeast  Level FlightAware Approximate
06:02PM 30.3236 -81.5042 113° Southeast 75 86 600  Level Jacksonville Center
06:03PM 30.3050 -81.5019 174° South 79 91 1,100 240 Climbing Jacksonville Center
06:06PM 30.2194 -81.5081 184° South 90 104 1,700 180 Climbing Jacksonville Center
06:07PM 30.2089 -81.5106 192° South 88 101 2,000 480 Climbing Jacksonville Center
06:08PM 30.1839 -81.5156 190° South 96 110 2,400 480 Climbing Jacksonville Center
06:09PM 30.1608 -81.5111 171° South 87 100 3,000 540 Climbing Jacksonville Center
06:10PM 30.1358 -81.5092 176° South 84 97 3,500 420 Climbing Jacksonville Center
06:11PM 30.1086 -81.5072 176° South 89 102 4,000 420 Climbing Jacksonville Center
06:12PM 30.0814 -81.5053 176° South 85 98 4,500 420 Climbing Jacksonville Center
06:13PM 30.0606 -81.5053 180° South 89 102 4,900 360 Climbing Jacksonville Center
06:14PM 30.0314 -81.5083 185° South 90 104 5,300 300 Climbing Jacksonville Center
06:15PM 30.0064 -81.5061 176° South 95 109 5,600 300 Climbing Jacksonville Center
06:16PM 29.9833 -81.5042 176° South 87 100 6,000 360 Climbing Jacksonville Center
06:17PM 29.9561 -81.5022 176° South 87 100 6,400 240 Climbing Jacksonville Center
06:18PM 29.9311 -81.5025 181° South 95 109 6,600  Climbing Jacksonville Center
06:19PM 29.9039 -81.5006 176° South 106 122 6,500 -60 Descending Jacksonville Center
06:20PM 29.8686 -81.5011 181° South 104 120 6,500  Level Jacksonville Center
06:21PM 29.8561 -81.5036 190° South 104 120 6,500  Level Jacksonville Center
06:22PM 29.8267 -81.4992 173° South 101 116 6,500  Level Jacksonville Center
06:23PM 29.7994 -81.4972 176° South 101 116 6,500  Level Jacksonville Center
06:24PM 29.7725 -81.4953 176° South 103 119 6,500  Level Jacksonville Center
06:25PM 29.7431 -81.4933 177° South 103 119 6,500  Level Jacksonville Center
06:26PM 29.7097 -81.4914 177° South 104 120 6,500  Level Jacksonville Center
06:27PM 29.6825 -81.4917 181° South 102 117 6,500  Level Jacksonville Center
06:28PM 29.6556 -81.4897 176° South 102 117 6,500  Level Jacksonville Center
06:29PM 29.6242 -81.4903 181° South 104 120 6,500  Level Jacksonville Center
06:30PM 29.5928 -81.4906 180° South 104 120 6,500 -240 Level Jacksonville Center
06:31PM 29.5614 -81.4864 173° South 107 123 6,000 -480 Descending Jacksonville Center
06:32PM 29.5344 -81.4842 176° South 111 128 5,600 -480 Descending Jacksonville Center
06:33PM 29.5008 -81.4847 181° South 114 131 5,100 -660 Descending Jacksonville Center
06:34PM 29.4717 -81.4853 181° South 111 128 4,300 -720 Descending Jacksonville Center
06:35PM 29.4361 -81.4856 180° South 111 128 3,700 -420 Descending Jacksonville Center
06:36PM 29.4092 -81.4836 176° South 99 114 3,500 -120 Descending Jacksonville Center
06:37PM 29.3797 -81.4817 177° South 102 117 3,500  Level Jacksonville Center
06:38PM 29.3486 -81.4822 181° South 109 125 3,500  Level Jacksonville Center
06:39PM 29.3172 -81.4825 180° South 105 121 3,500  Level Jacksonville Center
06:40PM 29.2878 -81.4758 169° South 105 121 3,500  Level Jacksonville Center
06:41PM 29.2586 -81.4764 181° South 107 123 3,500  Level Jacksonville Center
06:42PM 29.2294 -81.4744 177° South 105 121 3,500  Level Jacksonville Center
06:43PM 29.2003 -81.4747 180° South 105 121 3,500  Level Jacksonville Center
06:44PM 29.1753 -81.4728 176° South 105 121 3,500  Level Jacksonville Center
06:46PM 29.1000 -81.4667 176° South 105 121 3,500  Level Orlando TRACON
06:47PM 29.0667 -81.4667 180° South 108 124 3,500  Level Orlando TRACON
06:48PM 29.0500 -81.4667 180° South 107 123 3,500  Level Orlando TRACON
06:49PM 29.0167 -81.4667 180° South 109 125 3,500  Level Orlando TRACON
06:50PM 28.9833 -81.4667 180° South 107 123 3,500  Level Orlando TRACON
06:51PM 28.9500 -81.4667 180° South 107 123 3,500  Level Orlando TRACON
06:52PM 28.9167 -81.4667 180° South 110 127 3,500 -240 Level Orlando TRACON
06:53PM 28.9000 -81.4667 180° South 112 129 3,100 -300 Descending Orlando TRACON
06:54PM 28.8667 -81.4667 180° South 106 122 3,000 -60 Descending Orlando TRACON
06:55PM 28.8333 -81.4833 204° Southwest 111 128 3,000  Level Orlando TRACON
06:56PM 28.8000 -81.4833 180° South 105 121 3,000 -60 Level Orlando TRACON
06:57PM 28.7833 -81.4833 180° South 112 129 2,900  Descending Orlando TRACON
06:58PM 28.7500 -81.5000 204° Southwest 108 124 3,000  Climbing Orlando TRACON
06:59PM 28.7167 -81.5000 180° South 106 122 2,900  Descending Orlando TRACON
07:00PM 28.6833 -81.5000 180° South 105 121 3,000  Climbing Orlando TRACON
07:01PM 28.6667 -81.5167 221° Southwest 108 124 3,000 -180 Level Orlando TRACON
07:02PM 28.6333 -81.5167 180° South 111 128 2,700 -240 Descending Orlando TRACON
07:03PM 28.6000 -81.5167 180° South 105 121 2,500 -120 Descending Orlando TRACON
07:04PM 28.5667 -81.5333 204° Southwest 114 131 2,500  Level Orlando TRACON
07:05PM 28.5500 -81.5500 221° Southwest 112 129 2,500 -60 Level Orlando TRACON
07:06PM 28.5167 -81.5667 204° Southwest 110 127 2,400 -60 Descending Orlando TRACON
07:07PM 28.4833 -81.5833 204° Southwest 110 127 2,400  Level Orlando TRACON
07:08PM 28.4667 -81.5833 180° South 105 121 2,400 -300 Level Orlando TRACON
07:10PM 28.4333 -81.5667 156° South 109 125 1,800 -300 Descending Orlando TRACON
07:10PM 28.4000 -81.5500 156° South 97 112 1,900  Climbing Orlando TRACON
07:11PM 28.3833 -81.5333 139° Southeast 105 121 1,900  Level Orlando TRACON
07:12PM 28.3667 -81.5000 120° Southeast 104 120 1,900  Level Orlando TRACON